sensor_id;sensor_type;location;lat;lon;timestamp;P1;durP1;ratioP1;P2;durP2;ratioP2
55136;SDS011;41032;47.818;-3.732;2022-08-19T00:01:33;3.03;;;1.30;;
55136;SDS011;41032;47.818;-3.732;2022-08-19T00:04:04;2.33;;;1.30;;
55136;SDS011;41032;47.818;-3.732;2022-08-19T00:06:35;3.58;;;1.58;;
55136;SDS011;41032;47.818;-3.732;2022-08-19T00:09:06;3.47;;;1.60;;
55136;SDS011;41032;47.818;-3.732;2022-08-19T00:11:35;1.95;;;1.20;;
55136;SDS011;41032;47.818;-3.732;2022-08-19T00:14:05;2.80;;;1.30;;
55136;SDS011;41032;47.818;-3.732;2022-08-19T00:16:36;4.15;;;1.75;;
55136;SDS011;41032;47.818;-3.732;2022-08-19T00:19:05;2.50;;;1.63;;
55136;SDS011;41032;47.818;-3.732;2022-08-19T00:21:36;5.72;;;1.63;;
55136;SDS011;41032;47.818;-3.732;2022-08-19T00:24:06;3.95;;;1.73;;
55136;SDS011;41032;47.818;-3.732;2022-08-19T00:26:35;3.60;;;2.10;;
55136;SDS011;41032;47.818;-3.732;2022-08-19T00:29:04;3.08;;;1.98;;
55136;SDS011;41032;47.818;-3.732;2022-08-19T00:31:36;6.05;;;1.90;;
55136;SDS011;41032;47.818;-3.732;2022-08-19T00:34:03;3.40;;;2.00;;
55136;SDS011;41032;47.818;-3.732;2022-08-19T00:36:32;3.95;;;1.90;;
55136;SDS011;41032;47.818;-3.732;2022-08-19T00:39:01;3.20;;;1.60;;
55136;SDS011;41032;47.818;-3.732;2022-08-19T00:41:30;5.68;;;1.90;;
55136;SDS011;41032;47.818;-3.732;2022-08-19T00:46:32;4.90;;;2.15;;
55136;SDS011;41032;47.818;-3.732;2022-08-19T00:49:03;5.93;;;2.13;;
55136;SDS011;41032;47.818;-3.732;2022-08-19T00:51:48;4.05;;;1.73;;
55136;SDS011;41032;47.818;-3.732;2022-08-19T00:54:19;3.95;;;1.80;;
55136;SDS011;41032;47.818;-3.732;2022-08-19T00:56:48;4.95;;;2.10;;
55136;SDS011;41032;47.818;-3.732;2022-08-19T00:59:17;6.15;;;2.08;;
55136;SDS011;41032;47.818;-3.732;2022-08-19T01:01:46;3.58;;;1.80;;
55136;SDS011;41032;47.818;-3.732;2022-08-19T01:04:15;9.07;;;2.25;;
55136;SDS011;41032;47.818;-3.732;2022-08-19T01:06:43;4.30;;;1.98;;
55136;SDS011;41032;47.818;-3.732;2022-08-19T01:09:12;3.80;;;2.00;;
55136;SDS011;41032;47.818;-3.732;2022-08-19T01:11:41;5.13;;;2.03;;
55136;SDS011;41032;47.818;-3.732;2022-08-19T01:14:11;4.85;;;2.08;;
55136;SDS011;41032;47.818;-3.732;2022-08-19T01:16:40;6.18;;;2.63;;
55136;SDS011;41032;47.818;-3.732;2022-08-19T01:19:11;4.97;;;2.45;;
55136;SDS011;41032;47.818;-3.732;2022-08-19T01:21:55;6.47;;;2.33;;
55136;SDS011;41032;47.818;-3.732;2022-08-19T01:24:28;5.25;;;2.25;;
55136;SDS011;41032;47.818;-3.732;2022-08-19T01:26:57;7.50;;;2.75;;
55136;SDS011;41032;47.818;-3.732;2022-08-19T01:29:25;11.68;;;2.42;;
55136;SDS011;41032;47.818;-3.732;2022-08-19T01:31:55;3.80;;;1.90;;
55136;SDS011;41032;47.818;-3.732;2022-08-19T01:34:24;6.00;;;2.25;;
55136;SDS011;41032;47.818;-3.732;2022-08-19T01:36:52;5.60;;;2.40;;
55136;SDS011;41032;47.818;-3.732;2022-08-19T01:39:22;7.43;;;2.33;;
55136;SDS011;41032;47.818;-3.732;2022-08-19T01:41:52;5.75;;;2.35;;
55136;SDS011;41032;47.818;-3.732;2022-08-19T01:44:20;5.20;;;2.30;;
55136;SDS011;41032;47.818;-3.732;2022-08-19T01:46:50;5.13;;;2.17;;
55136;SDS011;41032;47.818;-3.732;2022-08-19T01:49:18;7.53;;;2.70;;
55136;SDS011;41032;47.818;-3.732;2022-08-19T01:51:49;5.85;;;2.25;;
55136;SDS011;41032;47.818;-3.732;2022-08-19T01:54:17;7.43;;;2.80;;
55136;SDS011;41032;47.818;-3.732;2022-08-19T01:56:46;10.40;;;2.58;;
55136;SDS011;41032;47.818;-3.732;2022-08-19T01:59:16;7.55;;;3.00;;
55136;SDS011;41032;47.818;-3.732;2022-08-19T02:01:47;4.15;;;2.17;;
55136;SDS011;41032;47.818;-3.732;2022-08-19T02:04:15;7.72;;;2.45;;
55136;SDS011;41032;47.818;-3.732;2022-08-19T02:06:44;5.47;;;2.20;;
55136;SDS011;41032;47.818;-3.732;2022-08-19T02:09:12;4.78;;;2.50;;
55136;SDS011;41032;47.818;-3.732;2022-08-19T02:11:42;9.18;;;2.97;;
55136;SDS011;41032;47.818;-3.732;2022-08-19T02:14:10;6.80;;;2.47;;
55136;SDS011;41032;47.818;-3.732;2022-08-19T02:16:39;8.10;;;2.58;;
55136;SDS011;41032;47.818;-3.732;2022-08-19T02:19:07;9.40;;;2.67;;
55136;SDS011;41032;47.818;-3.732;2022-08-19T02:21:36;9.75;;;2.45;;
55136;SDS011;41032;47.818;-3.732;2022-08-19T02:24:04;7.07;;;2.80;;
55136;SDS011;41032;47.818;-3.732;2022-08-19T02:26:34;6.60;;;2.50;;
55136;SDS011;41032;47.818;-3.732;2022-08-19T02:29:02;7.57;;;2.92;;
55136;SDS011;41032;47.818;-3.732;2022-08-19T02:31:31;7.22;;;2.63;;
55136;SDS011;41032;47.818;-3.732;2022-08-19T02:34:02;7.18;;;2.60;;
55136;SDS011;41032;47.818;-3.732;2022-08-19T02:36:32;6.80;;;2.80;;
55136;SDS011;41032;47.818;-3.732;2022-08-19T02:39:00;6.80;;;2.88;;
55136;SDS011;41032;47.818;-3.732;2022-08-19T02:41:30;5.85;;;2.40;;
55136;SDS011;41032;47.818;-3.732;2022-08-19T02:44:00;6.95;;;2.88;;
55136;SDS011;41032;47.818;-3.732;2022-08-19T02:46:30;8.68;;;2.67;;
55136;SDS011;41032;47.818;-3.732;2022-08-19T02:49:01;6.45;;;2.53;;
55136;SDS011;41032;47.818;-3.732;2022-08-19T02:51:34;8.50;;;2.40;;
55136;SDS011;41032;47.818;-3.732;2022-08-19T02:54:04;7.90;;;2.67;;
55136;SDS011;41032;47.818;-3.732;2022-08-19T02:56:35;9.23;;;3.22;;
55136;SDS011;41032;47.818;-3.732;2022-08-19T02:59:04;8.55;;;2.40;;
55136;SDS011;41032;47.818;-3.732;2022-08-19T03:01:36;7.95;;;2.63;;
55136;SDS011;41032;47.818;-3.732;2022-08-19T03:04:06;9.68;;;3.05;;
55136;SDS011;41032;47.818;-3.732;2022-08-19T03:06:37;7.53;;;2.72;;
55136;SDS011;41032;47.818;-3.732;2022-08-19T03:09:05;7.03;;;2.63;;
55136;SDS011;41032;47.818;-3.732;2022-08-19T03:11:35;7.70;;;2.55;;
55136;SDS011;41032;47.818;-3.732;2022-08-19T03:14:03;6.97;;;2.70;;
55136;SDS011;41032;47.818;-3.732;2022-08-19T03:16:34;7.07;;;2.60;;
55136;SDS011;41032;47.818;-3.732;2022-08-19T03:19:13;8.52;;;3.08;;
55136;SDS011;41032;47.818;-3.732;2022-08-19T03:21:45;7.90;;;2.60;;
55136;SDS011;41032;47.818;-3.732;2022-08-19T03:24:13;6.18;;;2.45;;
55136;SDS011;41032;47.818;-3.732;2022-08-19T03:26:46;8.55;;;3.05;;
55136;SDS011;41032;47.818;-3.732;2022-08-19T03:29:16;7.55;;;2.50;;
55136;SDS011;41032;47.818;-3.732;2022-08-19T03:31:45;10.20;;;3.17;;
55136;SDS011;41032;47.818;-3.732;2022-08-19T03:34:14;7.85;;;2.97;;
55136;SDS011;41032;47.818;-3.732;2022-08-19T03:36:45;8.40;;;2.65;;
55136;SDS011;41032;47.818;-3.732;2022-08-19T03:39:14;8.32;;;3.03;;
55136;SDS011;41032;47.818;-3.732;2022-08-19T03:41:44;7.05;;;3.10;;
55136;SDS011;41032;47.818;-3.732;2022-08-19T03:44:13;7.50;;;3.10;;
55136;SDS011;41032;47.818;-3.732;2022-08-19T03:46:46;6.65;;;2.63;;
55136;SDS011;41032;47.818;-3.732;2022-08-19T03:49:15;9.65;;;3.45;;
55136;SDS011;41032;47.818;-3.732;2022-08-19T03:51:46;8.80;;;3.35;;
55136;SDS011;41032;47.818;-3.732;2022-08-19T03:54:15;9.88;;;2.85;;
55136;SDS011;41032;47.818;-3.732;2022-08-19T03:56:47;10.63;;;2.85;;
55136;SDS011;41032;47.818;-3.732;2022-08-19T03:59:20;7.32;;;2.78;;
55136;SDS011;41032;47.818;-3.732;2022-08-19T04:01:53;10.82;;;3.38;;
55136;SDS011;41032;47.818;-3.732;2022-08-19T04:04:22;8.48;;;2.50;;
55136;SDS011;41032;47.818;-3.732;2022-08-19T04:06:52;9.15;;;3.08;;
55136;SDS011;41032;47.818;-3.732;2022-08-19T04:09:23;10.50;;;3.20;;
55136;SDS011;41032;47.818;-3.732;2022-08-19T04:11:54;10.07;;;3.15;;
55136;SDS011;41032;47.818;-3.732;2022-08-19T04:14:24;9.00;;;3.10;;
55136;SDS011;41032;47.818;-3.732;2022-08-19T04:16:54;8.13;;;2.88;;
55136;SDS011;41032;47.818;-3.732;2022-08-19T04:19:23;9.90;;;2.90;;
55136;SDS011;41032;47.818;-3.732;2022-08-19T04:21:53;10.60;;;3.17;;
55136;SDS011;41032;47.818;-3.732;2022-08-19T04:24:22;9.82;;;2.83;;
55136;SDS011;41032;47.818;-3.732;2022-08-19T04:26:51;13.00;;;3.40;;
55136;SDS011;41032;47.818;-3.732;2022-08-19T04:29:21;10.45;;;3.22;;
55136;SDS011;41032;47.818;-3.732;2022-08-19T04:31:52;10.25;;;3.25;;
55136;SDS011;41032;47.818;-3.732;2022-08-19T04:34:21;8.75;;;3.17;;
55136;SDS011;41032;47.818;-3.732;2022-08-19T04:36:52;11.38;;;3.60;;
55136;SDS011;41032;47.818;-3.732;2022-08-19T04:39:23;13.38;;;4.47;;
55136;SDS011;41032;47.818;-3.732;2022-08-19T04:42:13;11.93;;;3.55;;
55136;SDS011;41032;47.818;-3.732;2022-08-19T04:45:02;11.95;;;3.70;;
55136;SDS011;41032;47.818;-3.732;2022-08-19T04:47:31;12.95;;;3.33;;
55136;SDS011;41032;47.818;-3.732;2022-08-19T04:50:00;9.00;;;3.10;;
55136;SDS011;41032;47.818;-3.732;2022-08-19T04:52:29;10.25;;;3.30;;
55136;SDS011;41032;47.818;-3.732;2022-08-19T04:54:58;8.43;;;2.88;;
55136;SDS011;41032;47.818;-3.732;2022-08-19T04:57:28;9.88;;;3.40;;
55136;SDS011;41032;47.818;-3.732;2022-08-19T04:59:56;10.13;;;2.65;;
55136;SDS011;41032;47.818;-3.732;2022-08-19T05:02:25;12.82;;;3.33;;
55136;SDS011;41032;47.818;-3.732;2022-08-19T05:04:57;12.63;;;3.80;;
55136;SDS011;41032;47.818;-3.732;2022-08-19T05:07:27;11.85;;;3.25;;
55136;SDS011;41032;47.818;-3.732;2022-08-19T05:09:57;10.63;;;3.22;;
55136;SDS011;41032;47.818;-3.732;2022-08-19T05:12:25;11.05;;;3.75;;
55136;SDS011;41032;47.818;-3.732;2022-08-19T05:14:56;11.18;;;2.95;;
55136;SDS011;41032;47.818;-3.732;2022-08-19T05:17:25;12.38;;;3.58;;
55136;SDS011;41032;47.818;-3.732;2022-08-19T05:19:54;12.35;;;3.67;;
55136;SDS011;41032;47.818;-3.732;2022-08-19T05:22:42;13.18;;;3.28;;
55136;SDS011;41032;47.818;-3.732;2022-08-19T05:25:14;15.40;;;3.90;;
55136;SDS011;41032;47.818;-3.732;2022-08-19T05:27:45;10.77;;;3.05;;
55136;SDS011;41032;47.818;-3.732;2022-08-19T05:30:13;10.80;;;3.30;;
55136;SDS011;41032;47.818;-3.732;2022-08-19T05:32:43;13.32;;;3.50;;
55136;SDS011;41032;47.818;-3.732;2022-08-19T05:35:12;9.50;;;2.90;;
55136;SDS011;41032;47.818;-3.732;2022-08-19T05:37:40;13.50;;;4.03;;
55136;SDS011;41032;47.818;-3.732;2022-08-19T05:40:09;13.65;;;3.40;;
55136;SDS011;41032;47.818;-3.732;2022-08-19T05:42:37;11.50;;;3.15;;
55136;SDS011;41032;47.818;-3.732;2022-08-19T05:45:06;10.25;;;3.08;;
55136;SDS011;41032;47.818;-3.732;2022-08-19T05:47:35;10.57;;;2.97;;
55136;SDS011;41032;47.818;-3.732;2022-08-19T05:50:04;9.50;;;3.17;;
55136;SDS011;41032;47.818;-3.732;2022-08-19T05:52:32;13.48;;;3.10;;
55136;SDS011;41032;47.818;-3.732;2022-08-19T05:55:02;12.98;;;3.60;;
55136;SDS011;41032;47.818;-3.732;2022-08-19T05:57:31;11.35;;;3.53;;
55136;SDS011;41032;47.818;-3.732;2022-08-19T05:59:59;11.02;;;3.33;;
55136;SDS011;41032;47.818;-3.732;2022-08-19T06:02:30;14.80;;;3.67;;
55136;SDS011;41032;47.818;-3.732;2022-08-19T06:04:59;9.98;;;3.20;;
55136;SDS011;41032;47.818;-3.732;2022-08-19T06:07:28;8.02;;;3.05;;
55136;SDS011;41032;47.818;-3.732;2022-08-19T06:09:56;8.93;;;2.50;;
55136;SDS011;41032;47.818;-3.732;2022-08-19T06:12:25;7.88;;;2.80;;
55136;SDS011;41032;47.818;-3.732;2022-08-19T06:14:55;12.20;;;3.80;;
55136;SDS011;41032;47.818;-3.732;2022-08-19T06:17:24;8.52;;;2.78;;
55136;SDS011;41032;47.818;-3.732;2022-08-19T06:19:52;10.77;;;2.92;;
55136;SDS011;41032;47.818;-3.732;2022-08-19T06:22:22;9.80;;;3.22;;
55136;SDS011;41032;47.818;-3.732;2022-08-19T06:24:51;8.95;;;2.60;;
55136;SDS011;41032;47.818;-3.732;2022-08-19T06:27:20;8.93;;;2.67;;
55136;SDS011;41032;47.818;-3.732;2022-08-19T06:29:49;9.23;;;3.05;;
55136;SDS011;41032;47.818;-3.732;2022-08-19T06:32:18;9.93;;;2.83;;
55136;SDS011;41032;47.818;-3.732;2022-08-19T06:34:47;11.52;;;3.05;;
55136;SDS011;41032;47.818;-3.732;2022-08-19T06:37:15;11.30;;;3.03;;
55136;SDS011;41032;47.818;-3.732;2022-08-19T06:39:43;9.60;;;2.30;;
55136;SDS011;41032;47.818;-3.732;2022-08-19T06:42:12;11.40;;;2.33;;
55136;SDS011;41032;47.818;-3.732;2022-08-19T06:44:43;8.05;;;2.80;;
55136;SDS011;41032;47.818;-3.732;2022-08-19T06:47:13;7.25;;;2.72;;
55136;SDS011;41032;47.818;-3.732;2022-08-19T06:49:45;9.60;;;2.55;;
55136;SDS011;41032;47.818;-3.732;2022-08-19T06:52:13;8.27;;;2.65;;
55136;SDS011;41032;47.818;-3.732;2022-08-19T06:54:41;9.23;;;3.05;;
55136;SDS011;41032;47.818;-3.732;2022-08-19T06:57:11;11.77;;;2.67;;
55136;SDS011;41032;47.818;-3.732;2022-08-19T06:59:44;11.38;;;2.53;;
55136;SDS011;41032;47.818;-3.732;2022-08-19T07:02:12;9.50;;;2.83;;
55136;SDS011;41032;47.818;-3.732;2022-08-19T07:04:41;9.82;;;2.85;;
55136;SDS011;41032;47.818;-3.732;2022-08-19T07:07:11;10.88;;;2.78;;
55136;SDS011;41032;47.818;-3.732;2022-08-19T07:09:42;8.38;;;2.45;;
55136;SDS011;41032;47.818;-3.732;2022-08-19T07:12:12;12.90;;;3.10;;
55136;SDS011;41032;47.818;-3.732;2022-08-19T07:14:41;11.18;;;2.65;;
55136;SDS011;41032;47.818;-3.732;2022-08-19T07:17:11;12.85;;;2.65;;
55136;SDS011;41032;47.818;-3.732;2022-08-19T07:19:40;7.90;;;2.22;;
55136;SDS011;41032;47.818;-3.732;2022-08-19T07:22:10;8.63;;;2.47;;
55136;SDS011;41032;47.818;-3.732;2022-08-19T07:24:38;11.93;;;2.70;;
55136;SDS011;41032;47.818;-3.732;2022-08-19T07:27:07;9.77;;;2.28;;
55136;SDS011;41032;47.818;-3.732;2022-08-19T07:29:36;10.98;;;2.75;;
55136;SDS011;41032;47.818;-3.732;2022-08-19T07:32:05;6.25;;;2.17;;
55136;SDS011;41032;47.818;-3.732;2022-08-19T07:34:34;9.57;;;2.33;;
55136;SDS011;41032;47.818;-3.732;2022-08-19T07:37:04;10.13;;;2.70;;
55136;SDS011;41032;47.818;-3.732;2022-08-19T07:39:34;8.98;;;2.30;;
55136;SDS011;41032;47.818;-3.732;2022-08-19T07:42:04;7.75;;;2.22;;
55136;SDS011;41032;47.818;-3.732;2022-08-19T07:44:35;12.02;;;2.88;;
55136;SDS011;41032;47.818;-3.732;2022-08-19T07:47:04;9.85;;;2.47;;
55136;SDS011;41032;47.818;-3.732;2022-08-19T07:49:32;9.77;;;2.95;;
55136;SDS011;41032;47.818;-3.732;2022-08-19T07:52:04;12.00;;;2.35;;
55136;SDS011;41032;47.818;-3.732;2022-08-19T07:54:34;12.35;;;3.33;;
55136;SDS011;41032;47.818;-3.732;2022-08-19T07:57:05;10.88;;;2.80;;
55136;SDS011;41032;47.818;-3.732;2022-08-19T07:59:33;10.30;;;2.85;;
55136;SDS011;41032;47.818;-3.732;2022-08-19T08:02:00;10.88;;;2.97;;
55136;SDS011;41032;47.818;-3.732;2022-08-19T08:04:29;11.85;;;2.60;;
55136;SDS011;41032;47.818;-3.732;2022-08-19T08:07:16;8.85;;;2.55;;
55136;SDS011;41032;47.818;-3.732;2022-08-19T08:10:04;9.82;;;2.50;;
55136;SDS011;41032;47.818;-3.732;2022-08-19T08:12:35;12.02;;;2.80;;
55136;SDS011;41032;47.818;-3.732;2022-08-19T08:15:09;10.05;;;2.70;;
55136;SDS011;41032;47.818;-3.732;2022-08-19T08:17:57;9.93;;;2.22;;
55136;SDS011;41032;47.818;-3.732;2022-08-19T08:20:26;7.80;;;2.30;;
55136;SDS011;41032;47.818;-3.732;2022-08-19T08:22:55;6.68;;;2.00;;
55136;SDS011;41032;47.818;-3.732;2022-08-19T08:25:42;10.65;;;2.35;;
55136;SDS011;41032;47.818;-3.732;2022-08-19T08:28:11;9.50;;;2.03;;
55136;SDS011;41032;47.818;-3.732;2022-08-19T08:30:39;10.95;;;2.08;;
55136;SDS011;41032;47.818;-3.732;2022-08-19T08:33:09;9.82;;;3.00;;
55136;SDS011;41032;47.818;-3.732;2022-08-19T08:35:36;9.10;;;2.30;;
55136;SDS011;41032;47.818;-3.732;2022-08-19T08:38:06;8.05;;;2.33;;
55136;SDS011;41032;47.818;-3.732;2022-08-19T08:40:39;9.20;;;2.63;;
55136;SDS011;41032;47.818;-3.732;2022-08-19T08:43:17;10.63;;;2.20;;
55136;SDS011;41032;47.818;-3.732;2022-08-19T08:45:51;4.32;;;1.80;;
55136;SDS011;41032;47.818;-3.732;2022-08-19T08:48:32;9.85;;;2.05;;
55136;SDS011;41032;47.818;-3.732;2022-08-19T08:51:03;5.53;;;1.80;;
55136;SDS011;41032;47.818;-3.732;2022-08-19T08:53:34;10.85;;;2.00;;
55136;SDS011;41032;47.818;-3.732;2022-08-19T08:56:04;7.28;;;2.17;;
55136;SDS011;41032;47.818;-3.732;2022-08-19T08:58:45;9.27;;;2.08;;
55136;SDS011;41032;47.818;-3.732;2022-08-19T09:01:26;6.43;;;2.08;;
55136;SDS011;41032;47.818;-3.732;2022-08-19T09:03:53;5.63;;;1.83;;
55136;SDS011;41032;47.818;-3.732;2022-08-19T09:08:59;6.18;;;1.75;;
55136;SDS011;41032;47.818;-3.732;2022-08-19T09:14:10;5.20;;;2.13;;
55136;SDS011;41032;47.818;-3.732;2022-08-19T09:16:59;6.10;;;1.27;;
55136;SDS011;41032;47.818;-3.732;2022-08-19T09:19:29;7.93;;;2.05;;
55136;SDS011;41032;47.818;-3.732;2022-08-19T09:21:58;8.20;;;1.52;;
55136;SDS011;41032;47.818;-3.732;2022-08-19T09:24:26;9.05;;;1.52;;
55136;SDS011;41032;47.818;-3.732;2022-08-19T09:26:56;6.10;;;1.45;;
55136;SDS011;41032;47.818;-3.732;2022-08-19T09:29:24;7.07;;;1.58;;
55136;SDS011;41032;47.818;-3.732;2022-08-19T09:31:54;7.00;;;1.42;;
55136;SDS011;41032;47.818;-3.732;2022-08-19T09:34:21;5.75;;;1.45;;
55136;SDS011;41032;47.818;-3.732;2022-08-19T09:36:50;5.15;;;1.42;;
55136;SDS011;41032;47.818;-3.732;2022-08-19T09:39:21;8.18;;;1.35;;
55136;SDS011;41032;47.818;-3.732;2022-08-19T09:41:51;3.72;;;1.55;;
55136;SDS011;41032;47.818;-3.732;2022-08-19T09:44:19;5.90;;;1.83;;
55136;SDS011;41032;47.818;-3.732;2022-08-19T09:46:47;3.92;;;1.15;;
55136;SDS011;41032;47.818;-3.732;2022-08-19T09:49:17;5.60;;;1.45;;
55136;SDS011;41032;47.818;-3.732;2022-08-19T09:51:51;3.80;;;0.90;;
55136;SDS011;41032;47.818;-3.732;2022-08-19T09:54:22;5.25;;;1.45;;
55136;SDS011;41032;47.818;-3.732;2022-08-19T09:56:52;2.28;;;0.93;;
55136;SDS011;41032;47.818;-3.732;2022-08-19T09:59:20;6.13;;;2.08;;
55136;SDS011;41032;47.818;-3.732;2022-08-19T10:01:50;2.95;;;0.95;;
55136;SDS011;41032;47.818;-3.732;2022-08-19T10:04:18;4.35;;;1.45;;
55136;SDS011;41032;47.818;-3.732;2022-08-19T10:06:48;3.35;;;0.82;;
55136;SDS011;41032;47.818;-3.732;2022-08-19T10:09:17;3.55;;;0.90;;
55136;SDS011;41032;47.818;-3.732;2022-08-19T10:11:46;3.22;;;1.00;;
55136;SDS011;41032;47.818;-3.732;2022-08-19T10:14:14;4.40;;;1.50;;
55136;SDS011;41032;47.818;-3.732;2022-08-19T10:16:42;3.17;;;1.27;;
55136;SDS011;41032;47.818;-3.732;2022-08-19T10:19:09;4.47;;;1.40;;
55136;SDS011;41032;47.818;-3.732;2022-08-19T10:21:37;7.53;;;1.73;;
55136;SDS011;41032;47.818;-3.732;2022-08-19T10:24:05;5.78;;;1.33;;
55136;SDS011;41032;47.818;-3.732;2022-08-19T10:26:34;4.80;;;1.38;;
55136;SDS011;41032;47.818;-3.732;2022-08-19T10:29:03;5.70;;;1.55;;
55136;SDS011;41032;47.818;-3.732;2022-08-19T10:31:31;6.75;;;2.03;;
55136;SDS011;41032;47.818;-3.732;2022-08-19T10:33:59;8.30;;;1.52;;
55136;SDS011;41032;47.818;-3.732;2022-08-19T10:36:29;7.05;;;2.10;;
55136;SDS011;41032;47.818;-3.732;2022-08-19T10:38:59;5.50;;;1.63;;
55136;SDS011;41032;47.818;-3.732;2022-08-19T10:41:32;7.03;;;1.48;;
55136;SDS011;41032;47.818;-3.732;2022-08-19T10:44:02;8.15;;;1.83;;
55136;SDS011;41032;47.818;-3.732;2022-08-19T10:46:36;6.97;;;2.10;;
55136;SDS011;41032;47.818;-3.732;2022-08-19T10:49:07;7.20;;;2.05;;
55136;SDS011;41032;47.818;-3.732;2022-08-19T10:51:37;7.13;;;1.52;;
55136;SDS011;41032;47.818;-3.732;2022-08-19T10:54:24;6.28;;;1.80;;
55136;SDS011;41032;47.818;-3.732;2022-08-19T10:57:12;4.22;;;1.42;;
55136;SDS011;41032;47.818;-3.732;2022-08-19T10:59:40;4.50;;;1.58;;
55136;SDS011;41032;47.818;-3.732;2022-08-19T11:02:08;5.78;;;1.30;;
55136;SDS011;41032;47.818;-3.732;2022-08-19T11:04:38;5.63;;;1.30;;
55136;SDS011;41032;47.818;-3.732;2022-08-19T11:07:06;4.68;;;1.40;;
55136;SDS011;41032;47.818;-3.732;2022-08-19T11:09:37;6.50;;;1.70;;
55136;SDS011;41032;47.818;-3.732;2022-08-19T11:12:06;4.97;;;1.63;;
55136;SDS011;41032;47.818;-3.732;2022-08-19T11:14:35;6.10;;;1.55;;
55136;SDS011;41032;47.818;-3.732;2022-08-19T11:17:03;4.82;;;1.40;;
55136;SDS011;41032;47.818;-3.732;2022-08-19T11:19:32;4.65;;;1.55;;
55136;SDS011;41032;47.818;-3.732;2022-08-19T11:22:00;4.53;;;1.52;;
55136;SDS011;41032;47.818;-3.732;2022-08-19T11:24:28;3.92;;;1.45;;
55136;SDS011;41032;47.818;-3.732;2022-08-19T11:27:00;5.05;;;1.67;;
55136;SDS011;41032;47.818;-3.732;2022-08-19T11:29:31;5.72;;;1.33;;
55136;SDS011;41032;47.818;-3.732;2022-08-19T11:32:02;5.30;;;1.70;;
55136;SDS011;41032;47.818;-3.732;2022-08-19T11:34:32;4.20;;;1.27;;
55136;SDS011;41032;47.818;-3.732;2022-08-19T11:37:01;4.78;;;1.50;;
55136;SDS011;41032;47.818;-3.732;2022-08-19T11:39:30;4.32;;;1.50;;
55136;SDS011;41032;47.818;-3.732;2022-08-19T11:41:59;4.75;;;1.60;;
55136;SDS011;41032;47.818;-3.732;2022-08-19T11:44:28;4.93;;;1.40;;
55136;SDS011;41032;47.818;-3.732;2022-08-19T11:46:56;4.57;;;1.55;;
55136;SDS011;41032;47.818;-3.732;2022-08-19T11:49:25;4.78;;;1.40;;
55136;SDS011;41032;47.818;-3.732;2022-08-19T11:51:53;4.30;;;1.10;;
55136;SDS011;41032;47.818;-3.732;2022-08-19T11:54:21;6.88;;;1.23;;
55136;SDS011;41032;47.818;-3.732;2022-08-19T11:56:49;5.32;;;1.30;;
55136;SDS011;41032;47.818;-3.732;2022-08-19T11:59:16;3.05;;;1.20;;
55136;SDS011;41032;47.818;-3.732;2022-08-19T12:01:43;7.13;;;1.50;;
55136;SDS011;41032;47.818;-3.732;2022-08-19T12:04:11;6.43;;;1.42;;
55136;SDS011;41032;47.818;-3.732;2022-08-19T12:06:40;5.93;;;1.30;;
55136;SDS011;41032;47.818;-3.732;2022-08-19T12:09:09;4.90;;;1.23;;
55136;SDS011;41032;47.818;-3.732;2022-08-19T12:11:38;3.92;;;1.20;;
55136;SDS011;41032;47.818;-3.732;2022-08-19T12:14:06;4.97;;;1.60;;
55136;SDS011;41032;47.818;-3.732;2022-08-19T12:16:36;7.18;;;1.48;;
55136;SDS011;41032;47.818;-3.732;2022-08-19T12:19:05;2.40;;;0.98;;
55136;SDS011;41032;47.818;-3.732;2022-08-19T12:21:34;3.65;;;1.40;;
55136;SDS011;41032;47.818;-3.732;2022-08-19T12:24:03;10.93;;;1.90;;
55136;SDS011;41032;47.818;-3.732;2022-08-19T12:26:33;4.60;;;1.45;;
55136;SDS011;41032;47.818;-3.732;2022-08-19T12:29:00;4.03;;;1.20;;
55136;SDS011;41032;47.818;-3.732;2022-08-19T12:31:28;3.42;;;1.02;;
55136;SDS011;41032;47.818;-3.732;2022-08-19T12:33:57;5.45;;;1.50;;
55136;SDS011;41032;47.818;-3.732;2022-08-19T12:36:25;4.47;;;1.40;;
55136;SDS011;41032;47.818;-3.732;2022-08-19T12:38:53;3.88;;;1.20;;
55136;SDS011;41032;47.818;-3.732;2022-08-19T12:41:20;5.70;;;1.23;;
55136;SDS011;41032;47.818;-3.732;2022-08-19T12:43:49;3.65;;;1.25;;
55136;SDS011;41032;47.818;-3.732;2022-08-19T12:46:17;5.22;;;1.67;;
55136;SDS011;41032;47.818;-3.732;2022-08-19T12:48:47;2.80;;;1.05;;
55136;SDS011;41032;47.818;-3.732;2022-08-19T12:51:18;6.43;;;1.60;;
55136;SDS011;41032;47.818;-3.732;2022-08-19T12:53:46;6.85;;;1.35;;
55136;SDS011;41032;47.818;-3.732;2022-08-19T12:56:15;4.60;;;1.15;;
55136;SDS011;41032;47.818;-3.732;2022-08-19T12:58:46;3.88;;;1.38;;
55136;SDS011;41032;47.818;-3.732;2022-08-19T13:01:15;26.05;;;1.35;;
55136;SDS011;41032;47.818;-3.732;2022-08-19T13:03:45;3.60;;;1.17;;
55136;SDS011;41032;47.818;-3.732;2022-08-19T13:06:13;2.97;;;1.30;;
55136;SDS011;41032;47.818;-3.732;2022-08-19T13:08:41;3.42;;;1.02;;
55136;SDS011;41032;47.818;-3.732;2022-08-19T13:11:10;2.63;;;0.80;;
55136;SDS011;41032;47.818;-3.732;2022-08-19T13:13:39;4.65;;;1.00;;
55136;SDS011;41032;47.818;-3.732;2022-08-19T13:16:08;3.97;;;0.93;;
55136;SDS011;41032;47.818;-3.732;2022-08-19T13:18:37;2.28;;;0.70;;
55136;SDS011;41032;47.818;-3.732;2022-08-19T13:21:07;3.03;;;1.00;;
55136;SDS011;41032;47.818;-3.732;2022-08-19T13:23:37;3.70;;;1.17;;
55136;SDS011;41032;47.818;-3.732;2022-08-19T13:26:05;1.80;;;0.65;;
55136;SDS011;41032;47.818;-3.732;2022-08-19T13:28:36;2.63;;;0.82;;
55136;SDS011;41032;47.818;-3.732;2022-08-19T13:31:24;5.22;;;0.98;;
55136;SDS011;41032;47.818;-3.732;2022-08-19T13:34:12;2.10;;;0.65;;
55136;SDS011;41032;47.818;-3.732;2022-08-19T13:36:40;2.10;;;0.47;;
55136;SDS011;41032;47.818;-3.732;2022-08-19T13:39:07;1.38;;;0.55;;
55136;SDS011;41032;47.818;-3.732;2022-08-19T13:41:35;2.17;;;0.82;;
55136;SDS011;41032;47.818;-3.732;2022-08-19T13:44:03;5.72;;;0.60;;
55136;SDS011;41032;47.818;-3.732;2022-08-19T13:46:32;3.38;;;0.75;;
55136;SDS011;41032;47.818;-3.732;2022-08-19T13:48:59;2.67;;;0.60;;
55136;SDS011;41032;47.818;-3.732;2022-08-19T13:51:26;3.20;;;0.60;;
55136;SDS011;41032;47.818;-3.732;2022-08-19T13:53:53;2.28;;;0.65;;
55136;SDS011;41032;47.818;-3.732;2022-08-19T13:56:20;1.23;;;0.40;;
55136;SDS011;41032;47.818;-3.732;2022-08-19T13:58:47;3.05;;;0.80;;
55136;SDS011;41032;47.818;-3.732;2022-08-19T14:01:18;2.25;;;0.60;;
55136;SDS011;41032;47.818;-3.732;2022-08-19T14:03:47;1.95;;;0.73;;
55136;SDS011;41032;47.818;-3.732;2022-08-19T14:06:15;0.85;;;0.40;;
55136;SDS011;41032;47.818;-3.732;2022-08-19T14:08:42;1.17;;;0.47;;
55136;SDS011;41032;47.818;-3.732;2022-08-19T14:11:10;2.70;;;0.60;;
55136;SDS011;41032;47.818;-3.732;2022-08-19T14:13:38;3.42;;;0.55;;
55136;SDS011;41032;47.818;-3.732;2022-08-19T14:16:06;2.00;;;0.90;;
55136;SDS011;41032;47.818;-3.732;2022-08-19T14:18:35;3.85;;;0.40;;
55136;SDS011;41032;47.818;-3.732;2022-08-19T14:21:04;1.88;;;0.30;;
55136;SDS011;41032;47.818;-3.732;2022-08-19T14:23:32;2.08;;;0.47;;
55136;SDS011;41032;47.818;-3.732;2022-08-19T14:26:13;1.55;;;0.43;;
55136;SDS011;41032;47.818;-3.732;2022-08-19T14:28:42;1.67;;;0.57;;
55136;SDS011;41032;47.818;-3.732;2022-08-19T14:31:10;1.70;;;0.43;;
55136;SDS011;41032;47.818;-3.732;2022-08-19T14:33:40;5.32;;;0.55;;
55136;SDS011;41032;47.818;-3.732;2022-08-19T14:36:07;1.20;;;0.40;;
55136;SDS011;41032;47.818;-3.732;2022-08-19T14:38:35;0.70;;;0.38;;
55136;SDS011;41032;47.818;-3.732;2022-08-19T14:41:23;0.75;;;0.35;;
55136;SDS011;41032;47.818;-3.732;2022-08-19T14:43:49;2.40;;;0.60;;
55136;SDS011;41032;47.818;-3.732;2022-08-19T14:46:19;0.57;;;0.20;;
55136;SDS011;41032;47.818;-3.732;2022-08-19T14:48:49;1.38;;;0.30;;
55136;SDS011;41032;47.818;-3.732;2022-08-19T14:51:17;1.42;;;0.30;;
55136;SDS011;41032;47.818;-3.732;2022-08-19T14:53:47;2.65;;;0.30;;
55136;SDS011;41032;47.818;-3.732;2022-08-19T14:56:15;0.52;;;0.20;;